createdAt,value
2022-10-31T00:01:32.029Z,4.78
2022-10-31T00:03:58.591Z,5.18
2022-10-31T00:06:25.463Z,4.97
2022-10-31T00:09:00.402Z,3.85
2022-10-31T00:11:27.041Z,3.97
2022-10-31T00:13:54.339Z,4.20
2022-10-31T00:16:23.265Z,4.07
2022-10-31T00:18:53.778Z,4.50
2022-10-31T00:21:20.609Z,4.07
2022-10-31T00:23:47.539Z,4.50
2022-10-31T00:26:14.156Z,4.53
2022-10-31T00:28:40.761Z,4.85
2022-10-31T00:31:10.245Z,4.28
2022-10-31T00:33:39.944Z,4.35
2022-10-31T00:36:07.476Z,4.25
2022-10-31T00:38:34.529Z,4.30
2022-10-31T00:41:01.094Z,4.57
2022-10-31T00:43:27.726Z,3.95
2022-10-31T00:45:54.294Z,4.00
2022-10-31T00:48:20.808Z,3.92
2022-10-31T00:50:47.351Z,3.95
2022-10-31T00:53:13.873Z,3.67
2022-10-31T00:55:40.370Z,3.97
2022-10-31T00:58:06.905Z,3.72
2022-10-31T01:00:33.467Z,3.50
2022-10-31T01:03:00.711Z,4.45
2022-10-31T01:05:27.499Z,3.95
2022-10-31T01:07:54.003Z,3.42
2022-10-31T01:10:20.547Z,3.80
2022-10-31T01:12:49.603Z,4.03
2022-10-31T01:15:23.471Z,4.03
2022-10-31T01:17:50.299Z,4.70
2022-10-31T01:20:17.705Z,4.30
2022-10-31T01:22:44.275Z,3.92
2022-10-31T01:25:11.210Z,3.90
2022-10-31T01:27:37.792Z,4.03
2022-10-31T01:30:05.863Z,4.40
2022-10-31T01:32:32.473Z,4.00
2022-10-31T01:34:59.062Z,3.67
2022-10-31T01:37:25.572Z,3.80
2022-10-31T01:39:52.076Z,4.00
2022-10-31T01:42:20.881Z,4.30
2022-10-31T01:44:57.972Z,3.83
2022-10-31T01:47:41.204Z,3.85
2022-10-31T01:50:14.405Z,3.80
2022-10-31T01:52:45.423Z,4.05
2022-10-31T01:55:18.155Z,3.88
2022-10-31T01:57:47.542Z,4.45
2022-10-31T02:00:15.116Z,4.70
2022-10-31T02:02:42.915Z,4.15
2022-10-31T02:05:13.496Z,3.75
2022-10-31T02:07:46.633Z,4.43
2022-10-31T02:10:13.351Z,3.47
2022-10-31T02:12:41.100Z,3.70
2022-10-31T02:15:08.753Z,3.50
2022-10-31T02:17:35.629Z,3.28
2022-10-31T02:20:16.525Z,3.80
2022-10-31T02:23:06.659Z,3.88
2022-10-31T02:26:04.176Z,3.45
2022-10-31T02:29:08.291Z,3.72
2022-10-31T02:31:43.837Z,3.60
2022-10-31T02:34:23.868Z,3.70
2022-10-31T02:36:57.808Z,3.70
2022-10-31T02:39:39.820Z,3.50
2022-10-31T02:42:23.328Z,3.50
2022-10-31T02:44:57.258Z,3.55
2022-10-31T02:47:28.355Z,3.67
2022-10-31T02:49:57.775Z,3.45
2022-10-31T02:52:31.845Z,3.83
2022-10-31T02:54:58.602Z,3.80
2022-10-31T02:57:34.620Z,3.53
2022-10-31T03:00:07.347Z,3.72
2022-10-31T03:02:33.915Z,3.35
2022-10-31T03:05:15.484Z,3.40
2022-10-31T03:07:55.939Z,3.05
2022-10-31T03:10:32.845Z,3.47
2022-10-31T03:13:37.594Z,3.40
2022-10-31T03:16:26.575Z,3.60
2022-10-31T03:18:58.956Z,3.67
2022-10-31T03:21:34.297Z,3.35
2022-10-31T03:24:03.012Z,3.30
2022-10-31T03:26:30.050Z,3.03
2022-10-31T03:29:11.622Z,3.47
2022-10-31T03:31:44.404Z,3.30
2022-10-31T03:34:13.420Z,3.45
2022-10-31T03:36:41.212Z,3.25
2022-10-31T03:39:13.620Z,3.40
2022-10-31T03:41:43.724Z,3.40
2022-10-31T03:44:15.825Z,3.53
2022-10-31T03:46:43.985Z,3.22
2022-10-31T03:49:11.215Z,3.40
2022-10-31T03:51:41.424Z,3.17
2022-10-31T03:54:26.399Z,3.47
2022-10-31T03:57:13.408Z,3.55
2022-10-31T03:59:48.299Z,3.15
2022-10-31T04:02:18.084Z,3.20
2022-10-31T04:04:46.401Z,3.22
2022-10-31T04:07:14.550Z,3.00
2022-10-31T04:09:46.395Z,2.95
2022-10-31T04:12:16.281Z,3.30
2022-10-31T04:14:47.007Z,3.45
2022-10-31T04:17:17.336Z,3.72
2022-10-31T04:19:44.835Z,3.50
2022-10-31T04:22:11.601Z,3.05
2022-10-31T04:24:40.591Z,3.20
2022-10-31T04:27:07.954Z,3.10
2022-10-31T04:29:34.487Z,3.40
2022-10-31T04:32:00.975Z,3.15
2022-10-31T04:34:27.519Z,3.28
2022-10-31T04:36:54.093Z,3.10
2022-10-31T04:39:24.193Z,3.40
2022-10-31T04:41:53.332Z,3.30
2022-10-31T04:44:19.889Z,3.00
2022-10-31T04:46:46.471Z,3.20
2022-10-31T04:49:13.177Z,3.47
2022-10-31T04:51:39.730Z,4.05
2022-10-31T04:54:06.319Z,3.38
2022-10-31T04:56:32.828Z,3.10
2022-10-31T04:58:59.315Z,4.00
2022-10-31T05:01:25.966Z,4.70
2022-10-31T05:03:52.557Z,6.20
2022-10-31T05:06:19.126Z,5.47
2022-10-31T05:08:45.708Z,4.68
2022-10-31T05:11:12.225Z,3.47
2022-10-31T05:13:38.722Z,3.70
2022-10-31T05:16:05.491Z,3.67
2022-10-31T05:18:31.981Z,3.28
2022-10-31T05:20:58.472Z,3.50
2022-10-31T05:23:25.098Z,3.00
2022-10-31T05:25:51.700Z,3.30
2022-10-31T05:28:18.206Z,2.88
2022-10-31T05:30:44.799Z,3.33
2022-10-31T05:33:11.305Z,3.45
2022-10-31T05:35:37.799Z,3.17
2022-10-31T05:38:04.380Z,3.17
2022-10-31T05:40:30.882Z,3.35
2022-10-31T05:42:59.669Z,3.20
2022-10-31T05:45:26.884Z,3.53
2022-10-31T05:47:55.675Z,3.30
2022-10-31T05:50:23.136Z,3.22
2022-10-31T05:52:56.785Z,3.15
2022-10-31T05:55:23.339Z,3.30
2022-10-31T05:57:49.843Z,2.85
2022-10-31T06:00:16.405Z,3.00
2022-10-31T06:02:42.900Z,3.25
2022-10-31T06:05:09.545Z,3.60
2022-10-31T06:07:36.578Z,4.57
2022-10-31T06:10:06.129Z,5.93
2022-10-31T06:12:32.975Z,6.28
2022-10-31T06:14:59.542Z,7.03
2022-10-31T06:17:26.055Z,8.15
2022-10-31T06:19:52.593Z,7.70
2022-10-31T06:22:19.108Z,8.43
2022-10-31T06:24:45.599Z,7.85
2022-10-31T06:27:12.133Z,8.20
2022-10-31T06:29:38.620Z,8.93
2022-10-31T06:32:08.935Z,8.77
2022-10-31T06:34:38.875Z,9.60
2022-10-31T06:37:10.700Z,9.70
2022-10-31T06:39:37.280Z,10.07
2022-10-31T06:42:04.395Z,9.80
2022-10-31T06:44:31.693Z,9.30
2022-10-31T06:46:58.352Z,8.73
2022-10-31T06:49:24.955Z,8.77
2022-10-31T06:51:51.605Z,9.10
2022-10-31T06:54:18.377Z,9.15
2022-10-31T06:56:47.338Z,7.90
2022-10-31T06:59:14.115Z,8.20
2022-10-31T07:01:40.793Z,7.95
2022-10-31T07:04:10.940Z,8.82
2022-10-31T07:06:37.447Z,8.30
2022-10-31T07:09:04.121Z,6.95
2022-10-31T07:11:30.691Z,7.00
2022-10-31T07:13:57.358Z,7.13
2022-10-31T07:16:23.944Z,8.38
2022-10-31T07:18:51.102Z,6.95
2022-10-31T07:21:17.642Z,7.90
2022-10-31T07:23:44.117Z,7.18
2022-10-31T07:26:10.977Z,7.20
2022-10-31T07:28:37.488Z,7.85
2022-10-31T07:31:03.998Z,7.78
2022-10-31T07:33:30.600Z,7.30
2022-10-31T07:35:57.162Z,6.97
2022-10-31T07:38:23.735Z,7.80
2022-10-31T07:40:53.313Z,7.72
2022-10-31T07:43:20.379Z,8.50
2022-10-31T07:45:53.818Z,8.02
2022-10-31T07:48:20.749Z,6.90
2022-10-31T07:50:47.747Z,7.18
2022-10-31T07:53:15.665Z,8.50
2022-10-31T07:55:42.351Z,8.23
2022-10-31T07:58:11.610Z,8.73
2022-10-31T08:00:39.569Z,8.73
2022-10-31T08:03:12.153Z,8.50
2022-10-31T08:05:39.141Z,8.95
2022-10-31T08:08:06.800Z,8.23
2022-10-31T08:10:34.494Z,8.55
2022-10-31T08:13:03.794Z,8.13
2022-10-31T08:15:30.753Z,8.73
2022-10-31T08:17:57.676Z,7.97
2022-10-31T08:20:24.348Z,8.18
2022-10-31T08:23:04.258Z,8.60
2022-10-31T08:25:37.166Z,8.10
2022-10-31T08:28:07.184Z,7.45
2022-10-31T08:30:35.520Z,7.82
2022-10-31T08:33:24.462Z,7.85
2022-10-31T08:35:51.059Z,7.40
2022-10-31T08:38:17.547Z,9.50
2022-10-31T08:40:44.099Z,10.43
2022-10-31T08:43:15.163Z,11.18
2022-10-31T08:45:42.880Z,11.57
2022-10-31T08:48:14.404Z,11.60
2022-10-31T08:50:41.741Z,12.25
2022-10-31T08:53:12.785Z,12.57
2022-10-31T08:55:40.440Z,12.07
2022-10-31T08:58:11.350Z,12.88
2022-10-31T09:00:38.240Z,13.13
2022-10-31T09:03:07.621Z,13.77
2022-10-31T09:05:34.423Z,13.30
2022-10-31T09:08:03.277Z,12.93
2022-10-31T09:10:31.406Z,13.18
2022-10-31T09:13:03.163Z,13.05
2022-10-31T09:15:29.876Z,12.88
2022-10-31T09:17:56.437Z,13.07
2022-10-31T09:20:23.308Z,13.18
2022-10-31T09:22:57.091Z,14.55
2022-10-31T09:25:23.901Z,13.20
2022-10-31T09:27:50.462Z,14.38
2022-10-31T09:30:16.967Z,14.10
2022-10-31T09:32:43.467Z,13.98
2022-10-31T09:35:09.980Z,13.95
2022-10-31T09:37:36.514Z,14.10
2022-10-31T09:40:03.069Z,13.20
2022-10-31T09:42:42.725Z,13.35
2022-10-31T09:45:19.043Z,13.10
2022-10-31T09:47:59.131Z,13.77
2022-10-31T09:50:36.915Z,12.90
2022-10-31T09:53:11.348Z,13.30
2022-10-31T09:55:44.326Z,13.75
2022-10-31T09:58:20.656Z,13.10
2022-10-31T10:00:48.868Z,12.65
2022-10-31T10:03:39.663Z,12.50
2022-10-31T10:06:20.439Z,12.27
2022-10-31T10:08:48.180Z,13.27
2022-10-31T10:11:50.801Z,13.10
2022-10-31T10:14:32.453Z,12.52
2022-10-31T10:17:13.383Z,13.35
2022-10-31T10:20:04.337Z,13.85
2022-10-31T10:23:03.298Z,13.63
2022-10-31T10:25:38.168Z,13.32
2022-10-31T10:28:20.993Z,13.05
2022-10-31T10:30:51.640Z,14.02
2022-10-31T10:33:26.249Z,13.27
2022-10-31T10:36:06.747Z,14.82
2022-10-31T10:38:39.286Z,14.70
2022-10-31T10:41:16.972Z,14.68
2022-10-31T10:43:43.556Z,14.73
2022-10-31T10:46:39.571Z,14.68
2022-10-31T10:49:30.925Z,15.00
2022-10-31T10:52:39.673Z,15.50
2022-10-31T10:55:22.015Z,16.23
2022-10-31T10:58:01.572Z,16.65
2022-10-31T11:00:39.064Z,16.67
2022-10-31T11:03:07.145Z,16.13
2022-10-31T11:05:43.405Z,14.82
2022-10-31T11:08:09.978Z,14.35
2022-10-31T11:10:36.904Z,14.90
2022-10-31T11:13:16.877Z,15.52
2022-10-31T11:16:01.239Z,16.40
2022-10-31T11:18:31.423Z,15.93
2022-10-31T11:21:00.715Z,16.95
2022-10-31T11:23:29.338Z,16.10
2022-10-31T11:26:01.590Z,15.95
2022-10-31T11:28:30.598Z,17.23
2022-10-31T11:30:59.889Z,17.45
2022-10-31T11:33:33.273Z,17.60
2022-10-31T11:36:02.289Z,16.95
2022-10-31T11:38:35.943Z,18.45
2022-10-31T11:41:11.856Z,18.10
2022-10-31T11:43:39.805Z,17.67
2022-10-31T11:46:16.609Z,18.63
2022-10-31T11:48:49.484Z,17.08
2022-10-31T11:51:22.799Z,18.67
2022-10-31T11:53:56.909Z,18.70
2022-10-31T11:56:27.344Z,19.83
2022-10-31T11:58:59.830Z,19.42
2022-10-31T12:01:29.268Z,19.55
2022-10-31T12:04:07.171Z,19.67
2022-10-31T12:06:37.520Z,20.85
2022-10-31T12:09:31.140Z,21.35
2022-10-31T12:12:29.861Z,20.55
2022-10-31T12:15:21.324Z,20.73
2022-10-31T12:18:12.622Z,21.10
2022-10-31T12:20:48.175Z,21.58
2022-10-31T12:23:34.597Z,23.40
2022-10-31T12:26:08.343Z,22.67
2022-10-31T12:28:46.473Z,22.65
2022-10-31T12:31:37.313Z,24.27
2022-10-31T12:34:12.659Z,24.58
2022-10-31T12:36:42.113Z,24.52
2022-10-31T12:39:26.862Z,24.73
2022-10-31T12:42:03.400Z,24.98
2022-10-31T12:44:55.120Z,25.42
2022-10-31T12:47:28.293Z,25.00
2022-10-31T12:49:59.881Z,24.70
2022-10-31T12:52:36.646Z,25.58
2022-10-31T12:55:27.228Z,25.05
2022-10-31T12:58:02.786Z,23.90
2022-10-31T13:00:32.516Z,23.70
2022-10-31T13:03:09.645Z,25.45
2022-10-31T13:05:46.875Z,24.27
2022-10-31T13:08:18.952Z,24.83
2022-10-31T13:13:48.427Z,25.00
2022-10-31T13:16:20.593Z,24.33
2022-10-31T13:18:58.398Z,24.10
2022-10-31T13:21:30.110Z,24.55
2022-10-31T13:23:59.862Z,24.48
2022-10-31T13:26:44.731Z,24.38
2022-10-31T13:29:34.496Z,23.38
2022-10-31T13:32:05.863Z,23.33
2022-10-31T13:34:39.689Z,22.65
2022-10-31T13:37:24.932Z,24.10
2022-10-31T13:39:51.444Z,23.63
2022-10-31T13:42:24.040Z,23.50
2022-10-31T13:44:50.571Z,24.42
2022-10-31T13:47:26.669Z,24.38
2022-10-31T13:50:19.500Z,22.25
2022-10-31T13:52:46.469Z,22.55
2022-10-31T13:55:37.707Z,21.90
2022-10-31T13:58:24.679Z,23.05
2022-10-31T14:01:25.877Z,23.38
2022-10-31T14:04:12.476Z,22.73
2022-10-31T14:07:11.659Z,22.23
2022-10-31T14:09:42.728Z,22.63
2022-10-31T14:12:15.914Z,23.17
2022-10-31T14:14:51.452Z,23.13
2022-10-31T14:17:27.809Z,23.00
2022-10-31T14:20:01.081Z,23.83
2022-10-31T14:22:37.454Z,22.30
2022-10-31T14:25:30.132Z,23.67
2022-10-31T14:27:58.341Z,23.77
2022-10-31T14:30:27.636Z,22.40
2022-10-31T14:32:58.724Z,22.00
2022-10-31T14:35:48.021Z,22.10
2022-10-31T14:38:36.000Z,20.98
2022-10-31T14:41:25.288Z,20.02
2022-10-31T14:44:15.226Z,19.80
2022-10-31T14:46:58.397Z,19.92
2022-10-31T14:49:49.228Z,20.27
2022-10-31T14:52:19.288Z,20.42
2022-10-31T14:54:51.757Z,18.42
2022-10-31T14:57:25.958Z,19.42
2022-10-31T15:00:00.790Z,19.40
2022-10-31T15:02:56.472Z,19.23
2022-10-31T15:05:23.464Z,18.08
2022-10-31T15:07:55.781Z,18.67
2022-10-31T15:10:27.477Z,18.02
2022-10-31T15:12:54.279Z,18.27
2022-10-31T15:15:26.953Z,17.55
2022-10-31T15:17:57.415Z,17.92
2022-10-31T15:20:27.333Z,16.95
2022-10-31T15:22:57.319Z,17.95
2022-10-31T15:25:28.365Z,17.10
2022-10-31T15:27:54.941Z,17.45
2022-10-31T15:30:24.348Z,16.88
2022-10-31T15:32:58.158Z,17.38
2022-10-31T15:35:31.236Z,16.88
2022-10-31T15:37:59.846Z,16.50
2022-10-31T15:40:27.730Z,16.30
2022-10-31T15:43:04.888Z,16.48
2022-10-31T15:45:32.386Z,15.45
2022-10-31T15:48:00.849Z,16.45
2022-10-31T15:50:39.234Z,16.40
2022-10-31T15:53:07.544Z,15.55
2022-10-31T15:55:46.161Z,16.42
2022-10-31T15:58:15.578Z,16.17
2022-10-31T16:00:44.953Z,16.50
2022-10-31T16:03:14.626Z,15.40
2022-10-31T16:05:51.671Z,16.15
2022-10-31T16:08:30.249Z,16.20
2022-10-31T16:11:00.674Z,16.60
2022-10-31T16:13:32.455Z,15.93
2022-10-31T16:16:33.619Z,15.20
2022-10-31T16:18:50.897Z,16.58
2022-10-31T16:21:25.697Z,15.57
2022-10-31T16:23:58.345Z,16.25
2022-10-31T16:26:26.186Z,15.95
2022-10-31T16:29:03.192Z,15.75
2022-10-31T16:31:40.529Z,15.55
2022-10-31T16:34:26.062Z,15.88
2022-10-31T16:36:53.407Z,15.18
2022-10-31T16:39:20.205Z,15.98
2022-10-31T16:41:50.319Z,15.65
2022-10-31T16:44:22.299Z,15.13
2022-10-31T16:47:23.345Z,15.48
2022-10-31T16:49:52.635Z,16.75
2022-10-31T16:52:19.263Z,15.38
2022-10-31T16:54:45.899Z,16.70
2022-10-31T16:57:18.317Z,15.43
2022-10-31T16:59:49.384Z,17.67
2022-10-31T17:02:20.450Z,15.18
2022-10-31T17:04:48.584Z,16.83
2022-10-31T17:07:20.269Z,15.77
2022-10-31T17:09:46.923Z,16.35
2022-10-31T17:12:21.567Z,16.67
2022-10-31T17:14:51.619Z,14.68
2022-10-31T17:17:18.213Z,16.02
2022-10-31T17:19:44.749Z,15.07
2022-10-31T17:22:13.194Z,17.27
2022-10-31T17:24:39.820Z,16.77
2022-10-31T17:27:06.953Z,16.00
2022-10-31T17:29:33.730Z,15.88
2022-10-31T17:32:00.445Z,15.27
2022-10-31T17:34:26.995Z,16.90
2022-10-31T17:36:53.743Z,16.48
2022-10-31T17:39:20.749Z,16.40
2022-10-31T17:41:51.767Z,16.73
2022-10-31T17:44:19.191Z,16.42
2022-10-31T17:46:47.823Z,16.05
2022-10-31T17:49:14.532Z,16.70
2022-10-31T17:51:41.272Z,16.00
2022-10-31T17:54:09.573Z,15.80
2022-10-31T17:56:37.075Z,15.45
2022-10-31T17:59:03.717Z,15.25
2022-10-31T18:01:30.423Z,14.95
2022-10-31T18:03:57.628Z,14.63
2022-10-31T18:06:24.273Z,14.55
2022-10-31T18:08:50.872Z,14.30
2022-10-31T18:11:21.240Z,14.77
2022-10-31T18:13:48.243Z,13.80
2022-10-31T18:16:20.210Z,14.02
2022-10-31T18:18:52.464Z,14.90
2022-10-31T18:21:19.693Z,13.82
2022-10-31T18:23:46.617Z,13.57
2022-10-31T18:26:13.503Z,13.35
2022-10-31T18:28:40.116Z,13.18
2022-10-31T18:31:06.874Z,13.13
2022-10-31T18:33:35.836Z,13.65
2022-10-31T18:36:06.875Z,12.70
2022-10-31T18:38:34.283Z,13.02
2022-10-31T18:41:00.920Z,12.40
2022-10-31T18:43:27.542Z,14.05
2022-10-31T18:45:57.984Z,13.13
2022-10-31T18:48:24.915Z,12.95
2022-10-31T18:50:51.726Z,13.68
2022-10-31T18:53:18.378Z,12.63
2022-10-31T18:55:49.119Z,13.82
2022-10-31T18:58:16.992Z,13.57
2022-10-31T19:00:44.860Z,13.25
2022-10-31T19:03:12.007Z,12.85
2022-10-31T19:05:38.715Z,13.25
2022-10-31T19:08:05.561Z,12.38
2022-10-31T19:10:35.743Z,12.60
2022-10-31T19:13:02.454Z,12.98
2022-10-31T19:15:29.290Z,12.13
2022-10-31T19:17:55.805Z,12.80
2022-10-31T19:20:22.546Z,11.98
2022-10-31T19:22:49.343Z,12.48
2022-10-31T19:25:16.099Z,11.48
2022-10-31T19:27:42.665Z,11.68
2022-10-31T19:30:10.139Z,11.50
2022-10-31T19:32:36.718Z,12.02
2022-10-31T19:35:06.611Z,11.18
2022-10-31T19:37:33.133Z,10.43
2022-10-31T19:39:59.690Z,10.70
2022-10-31T19:42:26.277Z,10.77
2022-10-31T19:44:52.791Z,10.50
2022-10-31T19:47:19.285Z,10.40
2022-10-31T19:49:45.831Z,9.70
2022-10-31T19:52:12.383Z,8.85
2022-10-31T19:54:38.928Z,9.23
2022-10-31T19:57:05.419Z,9.63
2022-10-31T19:59:36.547Z,9.30
2022-10-31T20:02:05.621Z,9.20
2022-10-31T20:04:32.112Z,9.15
2022-10-31T20:06:58.829Z,8.85
2022-10-31T20:09:25.410Z,8.52
2022-10-31T20:11:52.149Z,8.40
2022-10-31T20:14:18.725Z,8.50
2022-10-31T20:16:45.769Z,8.18
2022-10-31T20:19:12.325Z,8.27
2022-10-31T20:21:41.098Z,8.23
2022-10-31T20:24:09.803Z,8.00
2022-10-31T20:26:37.958Z,7.78
2022-10-31T20:29:06.069Z,7.80
2022-10-31T20:31:35.914Z,7.07
2022-10-31T20:34:02.582Z,7.60
2022-10-31T20:36:30.871Z,7.43
2022-10-31T20:38:58.593Z,7.40
2022-10-31T20:41:25.473Z,7.80
2022-10-31T20:43:52.555Z,8.05
2022-10-31T20:46:24.221Z,7.80
2022-10-31T20:48:51.584Z,7.28
2022-10-31T20:51:24.491Z,7.53
2022-10-31T20:53:52.418Z,7.07
2022-10-31T20:56:21.027Z,6.55
2022-10-31T20:58:48.834Z,7.85
2022-10-31T21:01:23.702Z,7.38
2022-10-31T21:03:50.989Z,7.25
2022-10-31T21:06:23.103Z,7.05
2022-10-31T21:08:50.891Z,6.88
2022-10-31T21:11:20.571Z,7.10
2022-10-31T21:13:51.881Z,7.20
2022-10-31T21:16:24.743Z,7.43
2022-10-31T21:18:52.475Z,6.65
2022-10-31T21:21:29.138Z,7.30
2022-10-31T21:24:06.443Z,7.28
2022-10-31T21:26:38.926Z,7.20
2022-10-31T21:29:06.899Z,7.60
2022-10-31T21:31:34.843Z,7.18
2022-10-31T21:34:01.913Z,7.25
2022-10-31T21:36:28.554Z,6.72
2022-10-31T21:38:56.021Z,6.78
2022-10-31T21:41:24.451Z,6.77
2022-10-31T21:43:54.307Z,7.00
2022-10-31T21:46:31.758Z,6.68
2022-10-31T21:48:59.299Z,7.07
2022-10-31T21:51:28.436Z,7.80
2022-10-31T21:54:14.143Z,7.05
2022-10-31T21:56:40.945Z,6.60
2022-10-31T21:59:07.916Z,6.68
2022-10-31T22:01:36.081Z,6.43
2022-10-31T22:04:02.752Z,6.72
2022-10-31T22:06:32.457Z,6.82
2022-10-31T22:09:00.894Z,6.75
2022-10-31T22:11:28.559Z,6.53
2022-10-31T22:13:56.045Z,7.20
2022-10-31T22:16:24.407Z,6.78
2022-10-31T22:18:55.973Z,6.93
2022-10-31T22:21:24.864Z,6.27
2022-10-31T22:23:53.231Z,6.68
2022-10-31T22:26:20.252Z,6.22
2022-10-31T22:28:48.955Z,6.53
2022-10-31T22:31:18.422Z,6.22
2022-10-31T22:33:46.213Z,6.20
2022-10-31T22:36:15.741Z,5.97
2022-10-31T22:38:43.021Z,6.15
2022-10-31T22:41:13.170Z,5.97
2022-10-31T22:43:40.138Z,6.83
2022-10-31T22:46:10.471Z,6.30
2022-10-31T22:48:43.488Z,6.38
2022-10-31T22:51:20.128Z,6.70
2022-10-31T22:53:47.710Z,6.97
2022-10-31T22:56:17.226Z,5.93
2022-10-31T22:58:44.431Z,6.68
2022-10-31T23:01:16.679Z,6.10
2022-10-31T23:03:43.720Z,6.68
2022-10-31T23:06:13.882Z,6.80
2022-10-31T23:08:41.321Z,7.00
2022-10-31T23:11:21.276Z,6.22
2022-10-31T23:14:11.691Z,6.50
2022-10-31T23:16:42.519Z,6.57
2022-10-31T23:19:11.035Z,6.35
2022-10-31T23:21:55.309Z,6.30
2022-10-31T23:24:36.755Z,6.75
2022-10-31T23:27:24.328Z,6.75
2022-10-31T23:29:55.740Z,6.70
2022-10-31T23:32:23.778Z,6.47
2022-10-31T23:34:56.218Z,6.38
2022-10-31T23:37:26.359Z,6.80
2022-10-31T23:39:53.324Z,6.45
2022-10-31T23:42:20.206Z,6.32
2022-10-31T23:44:49.501Z,6.60
2022-10-31T23:47:17.413Z,6.67
2022-10-31T23:49:44.064Z,6.55
2022-10-31T23:52:11.420Z,7.10
2022-10-31T23:54:37.944Z,6.53
2022-10-31T23:57:05.161Z,6.20
2022-10-31T23:59:32.340Z,6.75
